AirNav   Jet Aviation Boston
 
 908 users online  

Z81 Salmon Lake Airport
Salmon Lake, Alaska, USA

GOING TO SALMON LAKE?


FAA INFORMATION EFFECTIVE 29 MARCH 2018

Location

FAA Identifier: Z81
Lat/Long: 64-54-32.4350N / 165-00-52.9800W
64-54.540583N / 165-00.883000W
64.9090097 / -165.0147167
(estimated)
Elevation: 509 ft. / 155 m (estimated)
Variation: 17E (1985)
Time zone: UTC -8 (UTC -9 during Standard Time)
Zip code: 99762

Airport Operations

Airport use: Open to the public
Activation date: 07/1958
Control tower: no
ARTCC: ANCHORAGE CENTER
FSS: NOME FLIGHT SERVICE STATION [ 443-2291 (local call from the AIRPORT)]
Alternate FSS: FAI FAIRBANKS FLIGHT SERVICE STATION [1-866-248-6516]
NOTAMs facility: OME (NOTAM-D service available)
Attendance: UNATNDD
Wind indicator: yes
Segmented circle: no

Airport Communications

CTAF: 122.9

Nearby radio navigation aids

VOR radial/distance  VOR name  Freq  Var
OMEr003/26.2NOME VOR/DME115.0011E

 
NDB name  Hdg/Dist  Freq  Var  ID
FORT DAVIS006/26.052911EFDV ..-. -.. ...-

Airport Services

Airframe service: NONE
Powerplant service: NONE
Bottled oxygen: NONE
Bulk oxygen: NONE

Runway Information

Runway 15/33

Dimensions: 2000 x 55 ft. / 610 x 17 m
Surface: gravel, in good condition
RY SOFT WHEN WET AND CONTAINS SEVERAL 6 IN ROCKS.
Runway edge markings: RY 15/33 MARKED WITH CONES & THLD PANELS.
Gradient: NORTHWEST
Operational restrictions: RY 15/33 SLOPES UPHILL SE TO NW. RY 15 THLD APRXLY 40 FT HIGHER.
RUNWAY 15  RUNWAY 33
Latitude: 64-54.696500N64-54.384667N
Longitude: 165-01.003167W165-00.762833W
Elevation: 509.0 ft.476.0 ft.
Gradient: 1.7% UP
Traffic pattern: leftleft
Obstructions: 640 ft. hill, 3960 ft. from runway, 500 ft. left of centerline, 6:1 slope to clearnone

Airport Ownership and Management from official FAA records

Ownership: Publicly-owned
Owner: ALASKA DOT&PF NORTHERN REGION
2301 PEGER RD
FAIRBANKS, AK 99709
Phone 907-451-5230
Manager: JOSEPH JOHNSON
PO BOX 1048
NOME, AK 99762
Phone 907-443-3431

Additional Remarks

END RWY 33 ROCKY.
RY NOT MAINTAINED & CONDITION NOT MONITORED, RECOMMEND VISUAL INSPECTION PRIOR TO LANDING.
RY USED AS A ROAD.
HIGH TERRAIN ALL QUADRANTS.

Instrument Procedures

There are no published instrument procedures at Z81.

Some nearby airports with instrument procedures:

PAOM - Nome Airport (26 nm SW)
PATE - Teller Airport (39 nm NW)
PAWM - White Mountain Airport (43 nm E)
PFKT - Brevig Mission Airport (45 nm NW)
PAGL - Golovin Airport (56 nm E)
 
Loc | Ops | Rwys | IFR | FBO | Links
Com | Nav | Svcs | Stats | Notes

Crowley
 
Area around Z81 (Salmon Lake Airport)
 
Road maps at: MapQuest Bing Google
 
Aerial photo
No photo
 
Sectional chart

 
Airport distance calculator
Flying to Salmon Lake Airport? Find the distance to fly.

From to Z81

Sunrise and sunset
Times for 19-Apr-2018
 Local
(UTC-8)
 Zulu
(UTC)
Morning civil twilight06:0914:09
Sunrise07:1015:10
Sunset22:4806:48
Evening civil twilight23:4907:49

Current date and time
Zulu (UTC)  20-Apr-2018 02:16:43
Local (UTC-8)  19-Apr-2018 18:16:43
 
METAR
PAOM 
27nm SW 
200153Z 03012KT 10SM CLR 03/M06 A2958 RMK AO2 SLP017 T00331056
PATE 
39nm NW 
200156Z AUTO 06012KT 10SM CLR 01/M07 A2966 RMK AO2 SLP051 T00111067 FZRANO
PAWM 
43nm E 
200156Z AUTO 01009G15KT 10SM CLR 04/M09 A2958 RMK AO2 SLP022 T00391094
PFKT 
45nm NW 
200156Z AUTO 05015KT 10SM CLR 03/M07 A2967 RMK AO2 UPB12E21 SLP049 P0000 T00331072
TAF
PAOM 
27nm SW 
191720Z 1918/2018 35009KT P6SM FEW200 FM192000 07012KT P6SM FEW200 FM200500 02007KT P6SM SKC
NOTAMs
Click for the latest NOTAMs
NOTAMs are issued by the DoD/FAA and will open in a separate window not controlled by AirNav.

 

 
 

Would you like to see your business listed on this page?

 If your business provides an interesting product or service to pilots, flight crews, aircraft, or users of the Salmon Lake Airport, you should consider listing it here.  To start the listing process, click on the button below
 
Add a business
 

Other Pages about Salmon Lake Airport

Update a link
 
Copyright © AirNav, LLC. All rights reserved. Privacy Policy  Contact